New Braunfels, TX (78135)

10:25 PM CDT on April 28, 2017 (GMT -0500)
MUR216 | | Change Station

Elev 633 ft 29.70 °N, 98.12 °W | Updated 2 hours ago

Clear
Clear
90.0 °F
Feels Like 90.0 °F
N
-
Wind Variable Wind from North

Today
High -- | Low -- °F
--% Chance of Precip.
Yesterday
High -- | Low -- °F
Precip. -- in
Pressure 29.55 in
Visibility 7.0 miles
Clouds Clear
Dew Point Not available.
Humidity Not available.
Rainfall in
Snow Depth Not available.
6:52 AM 8:07 PM
Waxing Crescent, 10% visible
METAR KBAZ 290251Z AUTO 15014KT 7SM CLR 27/21 A2958 RMK AO2 SLP007 T02670206 53020
Pressure 29.55 in
Visibility 7.0 miles
Clouds Clear
Dew Point Not available.
Humidity Not available.
Rainfall in
Snow Depth Not available.
6:52 AM 8:07 PM
Waxing Crescent, 10% visible
METAR KBAZ 290251Z AUTO 15014KT 7SM CLR 27/21 A2958 RMK AO2 SLP007 T02670206 53020

Get Severe Weather Alerts

Thanks for signing up!

Be on the lookout for a verification email in your inbox.

You'll start receiving the daily forecast at 8 AM.

×

10-Day Weather Forecast

Almanac

Astronomy

Apr. 28, 2017 Rise Set
Actual Time
Civil Twilight
Nautical Twilight
Astronomical Twilight
Moon
Length of Visible Light
Length of Day
Tomorrow will be .
, % of the Moon is Illuminated

Today's Extremes

State Highs State Lows

Community

WunderPhotos

WunderBlog® & News

Nearby

Air Quality

  Air Quality AQ Index Pollutant
Not available.

Snow Depth

Station Depth Elevation

Earthquake Activity

City Distance Mag. Time & Date
Minimum magnitude displayed is 2.5.

Coastal Water Temperatures

Place Temperature

Stations

Nearby Weather Stations

Station Location Temp. Windchill Dew Point Humidity Wind Precip. Elev Updated Type
                   

Watches & Warnings

There are currently no watches in effect.